Morretes, Brazil
Current Conditions -  °F | °C
As of 11:00 PM on Tuesday 21 Oct 2014 (Local Time) from SBCT Reporting Station
Broken Clouds Broken Clouds  
Wind Chill: 55°   Ceiling: 300
Heat Index: 55°   Visibility: 6mi
Dew Point: 52°   Wind: 9mph
Humidity: 88%   Direction: 120°ESE
Pressure: 30.27"   Gusts: NA
Location:  25.48°S, 48.83°W
Report Text: SBCT 220100Z 12008KT 9999 BKN003 BKN006 13/11 Q1025
Loading
Personal Weather Stations






























Interactive Weather Map
Tropical Storm Tracking
New forecast layout! Learn more

10-Day Weather Forecast

Advertisements
Track Severe Weather on mobile